Time;durP1;ratioP1;P1;durP2;ratioP2;P2;SDS_P1;SDS_P2;PMS_P1;PMS_P2;Temp;Humidity;BMP_temperature;BMP_pressure;BME280_temperature;BME280_humidity;BME280_pressure;Samples;Min_cycle;Max_cycle;Signal;HPM_P1;HPM_P2
2023/04/04 00:00:29;;;;;;;4.53;1.67;;;4.20;51.60;;;-0.65;68.92;95837.44;4984621;28;20056;-47
2023/04/04 00:02:55;;;;;;;3.30;1.63;;;4.20;51.60;;;-0.63;68.45;95840.66;4981738;28;20221;-52
2023/04/04 00:05:21;;;;;;;3.17;1.77;;;4.10;51.60;;;-0.60;69.07;95843.69;4980089;28;20378;-48
2023/04/04 00:07:47;;;;;;;3.53;1.90;;;4.20;51.60;;;-0.53;68.42;95843.78;4984523;28;20306;-47
2023/04/04 00:10:14;;;;;;;2.25;1.50;;;4.20;51.60;;;-0.58;68.36;95839.09;4978583;28;20030;-47
2023/04/04 00:12:42;;;;;;;2.78;1.80;;;4.20;51.60;;;-0.54;67.88;95836.91;4981266;28;20046;-49
2023/04/04 00:15:10;;;;;;;2.78;1.70;;;4.30;51.60;;;-0.58;68.62;95836.47;4981725;28;20487;-49
2023/04/04 00:17:36;;;;;;;2.70;1.65;;;4.30;51.50;;;-0.58;68.65;95835.69;4983571;28;20055;-52
2023/04/04 00:20:03;;;;;;;2.88;1.73;;;4.30;51.50;;;-0.59;nan;95836.69;4980545;28;20147;-47
2023/04/04 00:22:29;;;;;;;2.17;1.30;;;4.30;51.40;;;-0.67;69.03;95835.00;4983999;28;20419;-50
2023/04/04 00:24:56;;;;;;;4.10;1.58;;;4.30;52.00;;;-0.71;69.93;95836.38;4983496;28;20018;-52
2023/04/04 00:27:21;;;;;;;4.30;1.60;;;4.20;51.30;;;-0.77;70.97;95830.09;4981577;28;20026;-54
2023/04/04 00:29:47;;;;;;;2.88;1.60;;;4.20;51.40;;;-0.88;71.32;95827.94;4986106;28;20120;-52
2023/04/04 00:32:15;;;;;;;3.83;1.90;;;4.20;51.50;;;-0.88;71.82;95835.00;4980913;28;20100;-48
2023/04/04 00:34:41;;;;;;;3.50;1.80;;;4.10;51.50;;;-0.86;70.85;95827.78;4982858;28;20477;-47
2023/04/04 00:37:10;;;;;;;5.03;1.80;;;4.10;51.60;;;-0.93;71.00;95833.75;4980344;28;20064;-55
2023/04/04 00:39:36;;;;;;;4.07;2.08;;;4.10;51.60;;;-0.93;71.26;95830.34;4979663;28;20485;-47
2023/04/04 00:42:03;;;;;;;3.60;2.03;;;4.10;51.80;;;-0.94;71.18;95833.94;4982808;28;20049;-54
2023/04/04 00:44:31;;;;;;;3.92;1.63;;;4.00;51.80;;;-0.95;71.36;95834.94;4978009;28;20815;-47
2023/04/04 00:46:57;;;;;;;2.03;1.50;;;4.00;51.80;;;-0.94;71.62;95831.31;4980463;28;20044;-47
2023/04/04 00:49:23;;;;;;;2.38;1.40;;;4.00;51.80;;;-0.97;70.94;95835.13;4979480;28;20492;-51
2023/04/04 00:51:49;;;;;;;1.75;1.55;;;4.00;51.90;;;-1.00;72.20;95845.16;4979667;28;20083;-47
2023/04/04 00:54:15;;;;;;;4.65;2.42;;;4.00;51.90;;;-1.05;71.74;95837.84;4981139;28;20133;-49
2023/04/04 00:56:41;;;;;;;3.80;1.80;;;4.00;51.90;;;-1.06;71.60;95840.69;4982298;28;20032;-47
2023/04/04 00:59:07;;;;;;;3.42;1.70;;;3.90;51.90;;;-1.09;72.01;95846.28;4982746;28;20056;-49
2023/04/04 01:01:35;;;;;;;3.50;1.95;;;3.90;52.00;;;-1.14;72.28;95844.19;4978371;28;20030;-50
2023/04/04 01:04:02;;;;;;;3.42;1.90;;;3.90;52.00;;;-1.21;72.98;95841.50;4981768;28;20660;-54
2023/04/04 01:06:29;;;;;;;3.58;1.80;;;3.80;52.00;;;-1.22;72.72;95836.47;4983556;28;20018;-49
2023/04/04 01:08:56;;;;;;;3.67;1.85;;;3.80;52.00;;;-1.23;73.43;95837.47;4981153;28;20036;-48
2023/04/04 01:11:22;;;;;;;4.68;2.20;;;3.80;52.10;;;-1.22;73.57;95837.28;4981474;28;20037;-50
2023/04/04 01:13:49;;;;;;;4.30;2.10;;;3.80;52.20;;;-1.23;73.45;95837.47;4980547;28;20030;-47
2023/04/04 01:16:15;;;;;;;3.47;2.08;;;3.80;52.30;;;-1.28;73.46;95838.03;4977442;28;20027;-47
2023/04/04 01:18:44;;;;;;;3.00;1.67;;;3.70;52.30;;;-1.24;73.52;95836.66;4980119;28;20082;-50
2023/04/04 01:21:20;;;;;;;3.15;1.80;;;3.70;52.40;;;-1.25;73.60;95831.63;4978995;28;20029;-55
2023/04/04 01:24:02;;;;;;;2.75;1.90;;;3.70;52.40;;;-1.31;74.27;95829.75;4981547;28;20388;-50
2023/04/04 01:26:29;;;;;;;3.73;2.00;;;3.70;52.50;;;-1.33;74.30;95823.88;4979779;28;20049;-49
2023/04/04 01:28:58;;;;;;;4.60;2.05;;;3.70;52.50;;;-1.34;74.91;95823.06;4980129;28;20121;-47
2023/04/04 01:31:41;;;;;;;4.60;2.25;;;3.70;52.60;;;-1.33;75.40;95824.69;4984376;28;20376;-47
2023/04/04 01:34:51;;;;;;;3.33;2.30;;;3.70;52.70;;;-1.43;75.30;95813.72;4977936;28;20559;-47
2023/04/04 01:37:40;;;;;;;4.95;2.42;;;3.60;52.60;;;-1.48;75.03;95813.47;4979570;28;20037;-47
2023/04/04 01:40:33;;;;;;;2.72;1.95;;;3.60;52.70;;;-1.49;75.53;95815.25;4976127;28;20148;-47
2023/04/04 01:43:00;;;;;;;3.53;2.25;;;3.60;52.90;;;-1.46;75.22;95819.31;4979510;28;20562;-55
2023/04/04 01:45:28;;;;;;;3.83;1.85;;;3.60;52.80;;;-1.51;75.50;95813.81;4981497;28;20120;-47
2023/04/04 01:47:55;;;;;;;4.40;2.20;;;3.50;52.90;;;-1.54;75.58;95808.97;4980737;28;20140;-52
2023/04/04 01:50:22;;;;;;;3.25;2.20;;;3.50;53.00;;;-1.56;75.90;95816.19;4977445;28;20037;-51
2023/04/04 01:52:48;;;;;;;4.93;2.17;;;3.50;53.00;;;-1.54;76.20;95822.84;4981951;28;20036;-47
2023/04/04 01:55:15;;;;;;;4.88;2.30;;;3.50;53.00;;;-1.56;75.83;95813.59;4977558;28;20032;-51
2023/04/04 01:57:41;;;;;;;4.18;2.50;;;3.50;53.10;;;-1.60;76.33;95820.94;4975120;28;20032;-48
2023/04/04 02:00:08;;;;;;;5.22;2.45;;;3.40;53.10;;;-1.65;76.07;95824.13;4982357;28;20029;-50
2023/04/04 02:02:34;;;;;;;5.18;2.95;;;3.40;53.10;;;-1.63;76.69;95811.69;4981124;28;20052;-52
2023/04/04 02:05:00;;;;;;;10.38;2.60;;;3.40;53.10;;;-1.66;76.42;95814.69;4978148;28;20018;-55
2023/04/04 02:07:26;;;;;;;5.65;2.15;;;3.40;53.20;;;-1.71;77.22;95824.03;4995240;28;20037;-49
2023/04/04 02:09:52;;;;;;;4.18;2.70;;;3.40;53.30;;;-1.76;76.89;95811.50;4978361;28;20429;-50
2023/04/04 02:12:18;;;;;;;6.00;2.50;;;3.30;53.30;;;-1.76;77.35;95815.94;4978396;28;20441;-47
2023/04/04 02:14:44;;;;;;;3.05;2.28;;;3.30;53.30;;;-1.75;77.16;95812.34;4981264;28;20113;-56
2023/04/04 02:17:10;;;;;;;6.65;2.33;;;3.30;53.30;;;-1.83;77.22;95813.25;4978123;28;20025;-46
2023/04/04 02:19:36;;;;;;;3.58;2.30;;;3.30;53.40;;;-1.83;76.50;95805.41;4980369;28;20079;-49
2023/04/04 02:22:02;;;;;;;3.50;2.00;;;3.20;53.40;;;-1.86;76.39;95806.56;4978971;28;20492;-53
2023/04/04 02:24:28;;;;;;;4.32;2.42;;;3.20;53.40;;;-1.84;76.34;95806.41;4981450;28;20108;-48
2023/04/04 02:26:53;;;;;;;4.57;2.55;;;3.20;53.40;;;-1.87;76.89;95802.34;4982616;28;20111;-46
2023/04/04 02:29:19;;;;;;;4.13;2.30;;;3.20;53.50;;;-1.92;77.18;95803.88;4981036;28;20037;-46
2023/04/04 02:31:45;;;;;;;4.85;2.50;;;3.20;53.50;;;-1.92;77.48;95803.88;4978641;28;20033;-46
2023/04/04 02:34:11;;;;;;;4.15;2.80;;;3.10;53.50;;;-1.95;77.24;95805.03;4977807;28;20489;-47
2023/04/04 02:36:37;;;;;;;3.08;2.38;;;3.10;53.60;;;-1.96;77.38;95800.81;4978844;28;20289;-51
2023/04/04 02:39:04;;;;;;;4.78;2.28;;;3.10;53.60;;;-1.99;77.36;95803.00;4981578;28;20151;-46
2023/04/04 02:41:31;;;;;;;3.85;2.22;;;3.10;53.70;;;-1.99;77.46;95795.97;4978586;28;20528;-46
2023/04/04 02:43:57;;;;;;;4.78;2.10;;;3.10;53.70;;;-2.00;77.06;95796.97;4978607;28;20033;-48
2023/04/04 02:46:22;;;;;;;3.33;2.30;;;3.10;53.80;;;-2.05;77.53;95790.66;4972805;28;20038;-48
2023/04/04 02:48:49;;;;;;;4.20;2.38;;;3.10;53.80;;;-2.03;78.34;95788.69;4976839;28;20758;-48
2023/04/04 02:51:15;;;;;;;7.45;2.80;;;3.10;53.80;;;-2.07;78.47;95792.63;4981223;28;20076;-53
2023/04/04 02:53:41;;;;;;;3.33;2.53;;;3.00;53.90;;;-2.10;78.45;95784.19;4986272;28;20025;-50
2023/04/04 02:56:07;;;;;;;3.65;2.38;;;3.00;53.90;;;-2.16;78.64;95790.13;4981324;28;20032;-46
2023/04/04 02:58:34;;;;;;;6.82;2.50;;;3.00;53.90;;;-2.14;78.72;95789.94;4981930;28;20555;-53
2023/04/04 03:01:00;;;;;;;4.85;2.75;;;3.00;54.00;;;-2.21;78.73;95787.22;4982655;28;20068;-48
2023/04/04 03:03:26;;;;;;;4.65;2.25;;;2.90;54.00;;;-2.18;78.95;95788.69;4983686;28;20026;-46
2023/04/04 03:05:52;;;;;;;6.60;2.88;;;2.90;54.00;;;-2.19;78.77;95782.66;4984644;28;20109;-51
2023/04/04 03:08:18;;;;;;;3.55;2.55;;;2.90;54.10;;;-2.23;78.62;95788.41;4984908;28;20030;-53
2023/04/04 03:10:46;;;;;;;3.40;2.55;;;2.90;54.10;;;-2.23;79.31;95789.19;4981781;28;20040;-46
2023/04/04 03:13:12;;;;;;;4.15;2.88;;;2.80;54.20;;;-2.27;78.67;95782.72;4981999;28;20041;-52
2023/04/04 03:15:39;;;;;;;4.97;2.85;;;2.80;54.20;;;-2.27;79.36;95795.78;4984915;28;20018;-46
2023/04/04 03:18:06;;;;;;;3.05;2.17;;;2.80;54.20;;;-2.27;78.60;95789.75;4984408;28;20034;-46
2023/04/04 03:20:32;;;;;;;6.22;2.40;;;2.80;54.30;;;-2.34;79.65;95784.44;4983792;28;20033;-46
2023/04/04 03:22:57;;;;;;;3.75;2.40;;;2.70;54.30;;;-2.37;79.27;95790.03;4982166;28;20026;-45
2023/04/04 03:25:24;;;;;;;3.55;2.40;;;2.70;54.30;;;-2.39;79.37;95784.16;4985144;28;20064;-45
2023/04/04 03:27:50;;;;;;;4.68;2.70;;;2.70;54.40;;;-2.40;79.29;95785.16;4981551;28;20334;-46
2023/04/04 03:30:16;;;;;;;4.63;2.70;;;2.70;54.50;;;-2.41;79.69;95788.75;4985800;28;20518;-49
2023/04/04 03:32:42;;;;;;;4.88;2.97;;;2.60;54.50;;;-2.42;79.85;95789.72;4986362;28;20033;-45
2023/04/04 03:35:08;;;;;;;5.07;3.13;;;2.60;54.50;;;-2.45;79.87;95787.47;4982708;28;20025;-47
2023/04/04 03:37:34;;;;;;;4.63;2.97;;;2.60;54.60;;;-2.51;79.53;95786.38;4978505;28;20053;-46
2023/04/04 03:40:00;;;;;;;4.88;2.80;;;2.60;54.60;;;-2.51;79.94;95782.97;4981299;28;20105;-51
2023/04/04 03:42:26;;;;;;;5.38;2.63;;;2.50;54.70;;;-2.53;79.68;95785.78;4981160;28;20025;-45
2023/04/04 03:44:52;;;;;;;6.65;2.78;;;2.50;54.70;;;-2.51;79.16;95782.97;4984009;28;20061;-49
2023/04/04 03:47:19;;;;;;;4.55;2.42;;;2.50;54.70;;;-2.53;79.36;95782.34;4979412;28;20084;-45
2023/04/04 03:49:46;;;;;;;4.05;2.63;;;2.50;54.80;;;-2.49;78.55;95776.59;4984220;28;20030;-46
2023/04/04 03:52:12;;;;;;;5.50;2.42;;;2.50;54.80;;;-2.51;78.70;95791.59;4984621;28;20026;-45
2023/04/04 03:54:38;;;;;;;6.13;2.83;;;2.50;54.80;;;-2.52;78.62;95784.78;4983800;28;20495;-46
2023/04/04 03:57:04;;;;;;;5.72;2.30;;;2.50;54.80;;;-2.59;77.72;95784.69;4983214;28;20072;-46
2023/04/04 03:59:30;;;;;;;4.03;2.55;;;2.50;54.80;;;-2.54;78.32;95794.56;4983583;28;20025;-50
2023/04/04 04:01:56;;;;;;;3.90;2.30;;;2.50;54.80;;;-2.59;78.37;95783.88;4977401;28;20361;-46
2023/04/04 04:04:22;;;;;;;8.77;2.53;;;2.50;54.80;;;-2.59;78.32;95784.69;4979964;28;20140;-55
2023/04/04 04:06:48;;;;;;;6.32;2.30;;;2.50;54.80;;;-2.58;77.96;95777.66;4994266;28;20630;-46
2023/04/04 04:09:15;;;;;;;5.10;2.67;;;2.50;54.80;;;-2.53;77.78;95784.97;4985262;28;20173;-45
2023/04/04 04:11:41;;;;;;;3.70;2.22;;;2.50;54.80;;;-2.57;77.28;95790.53;4981163;28;20030;-46
2023/04/04 04:14:07;;;;;;;4.00;2.97;;;2.50;54.80;;;-2.57;78.01;95790.53;4984239;28;20034;-46
2023/04/04 04:16:33;;;;;;;6.55;3.03;;;2.50;54.80;;;-2.63;77.52;95788.63;4982260;28;20017;-46
2023/04/04 04:18:59;;;;;;;3.88;2.45;;;2.50;54.80;;;-2.61;77.92;95783.22;4982500;28;20048;-46
2023/04/04 04:21:25;;;;;;;5.07;3.00;;;2.50;54.80;;;-2.63;78.41;95780.81;4982472;28;20033;-46
2023/04/04 04:23:51;;;;;;;7.03;2.83;;;2.50;54.80;;;-2.68;78.19;95785.75;4981204;28;20026;-46
2023/04/04 04:26:17;;;;;;;3.75;2.20;;;2.40;54.80;;;-2.67;78.21;95791.75;4980341;28;20032;-53
2023/04/04 04:28:43;;;;;;;3.25;2.40;;;2.40;54.80;;;-2.68;78.23;95782.31;4982004;28;20069;-49
2023/04/04 04:31:09;;;;;;;7.18;2.70;;;2.50;54.80;;;-2.71;78.83;95791.31;4983793;28;20022;-47
2023/04/04 04:33:36;;;;;;;5.57;2.55;;;2.40;54.80;;;-2.72;78.23;95783.69;4983629;28;20037;-46
2023/04/04 04:36:05;;;;;;;4.30;2.63;;;2.40;54.80;;;-2.72;78.79;95788.88;4981290;28;20018;-50
2023/04/04 04:38:32;;;;;;;4.60;2.55;;;2.40;54.80;;;-2.77;78.61;95784.19;4980188;28;20127;-52
2023/04/04 04:40:59;;;;;;;5.35;2.72;;;2.40;54.80;;;-2.76;78.52;95801.44;4981613;28;20290;-51
2023/04/04 04:43:26;;;;;;;5.30;2.58;;;2.40;54.90;;;-2.77;78.81;95801.63;4984864;28;20025;-47
2023/04/04 04:45:52;;;;;;;3.97;2.65;;;2.40;54.90;;;-2.77;79.04;95796.41;4979473;28;20127;-49
2023/04/04 04:48:18;;;;;;;5.43;2.60;;;2.40;54.90;;;-2.82;78.73;95792.56;4979739;28;20141;-47
2023/04/04 04:50:45;;;;;;;5.85;2.72;;;2.30;54.90;;;-2.82;79.31;95809.97;4980470;28;20030;-47
2023/04/04 04:53:13;;;;;;;5.63;2.95;;;2.30;54.90;;;-2.83;79.17;95803.94;4982883;28;20372;-51
2023/04/04 04:55:41;;;;;;;5.68;2.38;;;2.30;54.90;;;-2.85;79.21;95808.56;4978014;28;20140;-50
2023/04/04 04:58:09;;;;;;;5.63;2.95;;;2.30;54.90;;;-2.87;79.80;95815.72;4978073;28;20037;-52
2023/04/04 05:00:36;;;;;;;5.40;2.55;;;2.30;55.00;;;-2.89;79.25;95807.25;4977387;28;20033;-47
2023/04/04 05:03:07;;;;;;;6.85;2.80;;;2.30;55.00;;;-2.87;79.53;95817.53;4980166;28;20214;-48
2023/04/04 05:05:36;;;;;;;7.15;3.10;;;2.30;55.00;;;-2.89;79.62;95812.47;4985495;28;20032;-51
2023/04/04 05:08:04;;;;;;;4.90;2.83;;;2.20;55.00;;;-2.89;79.47;95807.25;4979751;28;20476;-47
2023/04/04 05:10:30;;;;;;;5.28;2.80;;;2.30;55.10;;;-2.89;79.73;95820.28;4966374;28;23129;-47
2023/04/04 05:12:57;;;;;;;5.75;2.92;;;2.30;55.00;;;-2.89;79.89;95817.69;4981529;28;20032;-49
2023/04/04 05:15:28;;;;;;;3.95;2.72;;;2.30;55.00;;;-2.96;79.97;95821.19;4998549;28;20022;-54
2023/04/04 05:17:54;;;;;;;5.57;2.75;;;2.20;55.00;;;-2.92;80.13;95819.84;4981483;28;20067;-47
2023/04/04 05:20:20;;;;;;;6.40;3.08;;;2.30;55.10;;;-2.93;79.99;95821.63;4983133;28;20157;-52
2023/04/04 05:22:46;;;;;;;6.95;3.22;;;2.30;55.00;;;-2.87;80.25;95826.16;4995547;28;20040;-49
2023/04/04 05:25:13;;;;;;;5.30;2.97;;;2.30;55.00;;;-2.85;79.98;95825.97;4977797;28;20022;-49
2023/04/04 05:27:40;;;;;;;4.10;2.72;;;2.30;55.00;;;-2.84;80.12;95823.19;4981678;28;20392;-49
2023/04/04 05:30:08;;;;;;;3.72;2.38;;;2.30;55.00;;;-2.85;80.05;95833.78;4984589;28;20022;-49
2023/04/04 05:32:34;;;;;;;5.70;3.20;;;2.30;55.00;;;-2.82;79.69;95836.88;4982311;28;20260;-50
2023/04/04 05:35:00;;;;;;;4.88;3.45;;;2.30;55.00;;;-2.82;79.79;95841.25;4981375;28;20030;-46
2023/04/04 05:37:26;;;;;;;7.40;2.75;;;2.30;55.00;;;-2.86;79.78;95832.19;4996617;23;20159;-45
2023/04/04 05:39:54;;;;;;;3.83;2.75;;;2.40;55.00;;;-2.90;80.01;95841.34;4985408;28;20041;-48
2023/04/04 05:42:20;;;;;;;6.07;2.72;;;2.30;55.00;;;-2.91;80.73;95842.34;4979786;28;20471;-49
2023/04/04 05:44:46;;;;;;;4.60;2.60;;;2.40;55.00;;;-2.83;80.50;95847.47;4991907;28;20800;-47
2023/04/04 05:47:12;;;;;;;4.18;2.72;;;2.40;55.00;;;-2.86;80.60;95840.00;4984444;28;20041;-48
2023/04/04 05:49:38;;;;;;;4.53;3.08;;;2.40;55.00;;;-2.77;80.31;95841.56;4968772;28;20116;-47
2023/04/04 05:52:04;;;;;;;6.40;3.35;;;2.50;55.00;;;-2.58;79.76;95845.47;4971875;28;20499;-46
2023/04/04 05:54:29;;;;;;;4.85;2.72;;;2.70;55.00;;;-2.39;79.10;95844.97;4976702;28;20450;-47
2023/04/04 05:56:55;;;;;;;4.90;3.42;;;2.90;55.00;;;-2.23;78.38;95844.00;4967277;28;20026;-50
2023/04/04 05:59:21;;;;;;;7.35;3.22;;;3.10;54.90;;;-2.15;77.86;95849.16;4973584;28;20030;-50
2023/04/04 06:01:47;;;;;;;4.22;2.50;;;3.40;54.80;;;-1.95;76.69;95836.38;4969108;28;20030;-47
2023/04/04 06:04:13;;;;;;;4.25;2.55;;;3.70;54.60;;;-1.66;76.31;95847.78;4967096;28;20489;-48
2023/04/04 06:06:39;;;;;;;4.10;2.60;;;3.90;54.40;;;-1.66;75.12;95846.03;4977303;28;20026;-49
2023/04/04 06:09:06;;;;;;;4.70;2.63;;;4.20;54.10;;;-1.40;74.58;95853.38;4977150;28;20064;-48
2023/04/04 06:11:32;;;;;;;5.82;2.80;;;4.50;53.80;;;-1.33;74.17;95845.59;4972896;28;20124;-51
2023/04/04 06:13:58;;;;;;;5.05;2.60;;;4.70;53.50;;;-1.31;73.48;95854.06;4968351;28;20489;-49
2023/04/04 06:16:25;;;;;;;6.05;2.70;;;5.00;53.20;;;-1.26;73.15;95856.13;4966978;28;20040;-48
2023/04/04 06:18:51;;;;;;;4.05;2.40;;;5.20;52.80;;;-1.12;72.41;95857.09;4967760;28;20026;-51
2023/04/04 06:21:17;;;;;;;5.25;2.35;;;5.40;52.50;;;-1.01;72.02;95864.44;4969412;28;20463;-50
2023/04/04 06:23:42;;;;;;;6.30;2.92;;;5.60;52.20;;;-0.89;71.84;95856.94;4972111;28;20036;-51
2023/04/04 06:26:08;;;;;;;5.07;2.60;;;5.80;51.90;;;-0.81;71.45;95867.28;4967849;28;20037;-52
2023/04/04 06:28:35;;;;;;;3.22;2.30;;;6.00;51.70;;;-0.67;71.29;95866.41;4967902;28;20079;-49
2023/04/04 06:31:04;;;;;;;3.08;2.25;;;6.20;51.40;;;-0.74;71.00;95861.09;4964596;28;20057;-50
2023/04/04 06:33:30;;;;;;;6.38;2.60;;;6.40;51.20;;;-0.55;70.27;95864.91;4977955;28;20029;-48
2023/04/04 06:35:56;;;;;;;4.03;2.50;;;6.50;50.90;;;-0.74;70.24;95861.09;4968930;28;20022;-51
2023/04/04 06:38:22;;;;;;;5.05;2.72;;;6.70;51.20;;;-0.44;70.60;95873.22;4968405;28;20041;-52
2023/04/04 06:40:47;;;;;;;5.53;2.60;;;6.80;50.30;;;-0.12;69.31;95866.66;4970899;28;20018;-53
2023/04/04 06:43:14;;;;;;;4.72;2.83;;;6.90;50.20;;;0.06;67.75;95869.56;4971678;28;20038;-51
2023/04/04 06:45:40;;;;;;;4.65;2.25;;;7.10;50.00;;;-0.28;69.02;95870.38;4970019;28;20056;-51
2023/04/04 06:48:06;;;;;;;6.10;2.70;;;7.20;49.80;;;-0.37;69.32;95874.91;4966323;28;20145;-51
2023/04/04 06:50:31;;;;;;;4.40;2.38;;;7.30;49.60;;;-0.06;68.33;95881.63;4968349;28;20501;-51
2023/04/04 06:53:00;;;;;;;3.20;2.63;;;7.30;49.50;;;0.07;68.55;95881.69;4971516;28;20228;-54
2023/04/04 06:55:27;;;;;;;5.05;2.33;;;7.30;49.50;;;-0.48;68.87;95871.00;4971114;28;20065;-52
2023/04/04 06:57:53;;;;;;;5.18;2.50;;;7.10;49.50;;;-0.55;70.48;95874.56;4968110;28;20112;-53
2023/04/04 07:00:20;;;;;;;4.80;2.70;;;7.10;49.40;;;-0.30;69.91;95873.16;4967349;28;20325;-52
2023/04/04 07:02:46;;;;;;;4.60;2.42;;;7.00;49.30;;;-0.33;69.12;95876.16;4969799;28;20026;-55
2023/04/04 07:05:13;;;;;;;5.40;2.58;;;6.90;49.30;;;-0.67;70.07;95868.19;4968261;28;20025;-55
2023/04/04 07:07:39;;;;;;;4.45;2.90;;;6.70;49.30;;;-0.81;70.41;95872.50;4975017;28;20095;-55
2023/04/04 07:10:06;;;;;;;4.75;2.42;;;6.50;49.30;;;-0.98;70.58;95880.56;4971763;28;20022;-56
2023/04/04 07:12:32;;;;;;;4.10;2.33;;;6.40;49.40;;;-0.96;70.39;95877.78;4971070;28;20029;-53
2023/04/04 07:14:57;;;;;;;5.47;2.83;;;6.30;49.30;;;-0.86;70.45;95875.66;4974553;28;20444;-54
2023/04/04 07:17:24;;;;;;;4.35;2.35;;;6.20;49.40;;;-0.99;70.89;95865.06;4966860;28;20030;-51
2023/04/04 07:19:50;;;;;;;4.32;2.63;;;6.10;49.40;;;-0.81;70.45;95867.28;4972190;28;20080;-52
2023/04/04 07:22:16;;;;;;;4.90;2.83;;;6.10;49.50;;;-0.76;69.87;95870.13;4971710;28;20034;-53
2023/04/04 07:24:41;;;;;;;3.67;2.60;;;6.20;49.50;;;-0.64;69.63;95875.69;4966183;28;20365;-54
2023/04/04 07:27:07;;;;;;;4.45;2.47;;;6.40;49.40;;;-0.20;68.25;95872.03;4969939;28;20464;-51
2023/04/04 07:29:33;;;;;;;4.50;2.38;;;6.70;49.30;;;0.07;66.27;95852.06;4972941;28;20044;-50
2023/04/04 07:31:59;;;;;;;5.45;3.17;;;6.90;49.10;;;0.08;66.76;95864.16;4971731;28;20061;-52
2023/04/04 07:34:25;;;;;;;3.75;2.60;;;7.10;48.90;;;0.17;65.00;95871.69;4970721;28;20033;-50
2023/04/04 07:36:52;;;;;;;6.65;2.63;;;7.30;48.60;;;0.01;66.16;95868.56;4969923;28;20022;-51
2023/04/04 07:39:18;;;;;;;5.30;2.80;;;7.20;48.20;;;-0.14;66.28;95874.69;4972144;28;20050;-52
2023/04/04 07:41:44;;;;;;;5.32;2.80;;;7.10;48.00;;;-0.05;65.76;95860.44;4969758;28;20578;-55
2023/04/04 07:44:10;;;;;;;4.85;2.60;;;7.10;48.00;;;0.11;65.72;95875.06;4972016;28;20160;-55
2023/04/04 07:46:37;;;;;;;5.43;2.65;;;7.20;47.80;;;0.28;65.18;95866.88;4975351;28;20053;-51
2023/04/04 07:49:02;;;;;;;4.10;2.90;;;7.40;47.80;;;0.66;63.46;95868.13;4973101;28;20038;-55
2023/04/04 07:51:29;;;;;;;4.88;3.00;;;7.70;47.60;;;0.62;64.72;95861.63;4973395;28;20040;-55
2023/04/04 07:53:56;;;;;;;4.15;2.60;;;8.00;47.30;;;0.82;63.58;95859.09;4971244;28;20042;-51
2023/04/04 07:56:22;;;;;;;6.10;3.00;;;8.30;46.90;;;1.29;62.65;95872.34;4974043;28;20109;-54
2023/04/04 07:58:48;;;;;;;4.53;2.60;;;8.60;46.80;;;1.52;61.41;95880.66;4971740;28;20026;-54
2023/04/04 08:01:14;;;;;;;6.07;2.97;;;8.90;46.50;;;1.58;61.54;95873.78;4975060;28;20060;-54
2023/04/04 08:03:40;;;;;;;5.60;2.85;;;9.20;46.10;;;1.61;60.24;95871.56;4971131;28;20038;-50
2023/04/04 08:06:06;;;;;;;7.03;2.80;;;9.40;45.80;;;1.51;60.51;95857.22;4968561;28;20161;-55
2023/04/04 08:08:32;;;;;;;4.05;2.65;;;9.60;45.30;;;1.72;59.23;95861.47;4974435;28;20034;-54
2023/04/04 08:10:57;;;;;;;6.13;3.03;;;9.80;45.00;;;2.14;59.67;95854.16;4976852;28;20500;-53
2023/04/04 08:13:24;;;;;;;2.72;2.33;;;9.90;44.70;;;2.15;58.23;95858.41;4968389;28;20427;-48
2023/04/04 08:15:49;;;;;;;4.03;2.90;;;10.00;44.60;;;1.97;60.54;95861.66;4974578;28;20129;-51
2023/04/04 08:18:15;;;;;;;3.70;2.17;;;10.10;44.40;;;2.54;58.72;95868.03;4973183;28;20575;-52
2023/04/04 08:20:41;;;;;;;4.68;2.63;;;10.20;44.40;;;2.83;56.75;95856.19;4969462;28;20030;-55
2023/04/04 08:23:08;;;;;;;2.97;2.38;;;10.40;44.30;;;2.84;56.27;95857.78;4975899;28;20028;-49
2023/04/04 08:25:34;;;;;;;3.80;2.55;;;10.60;44.10;;;2.85;56.30;95863.84;4973254;28;20484;-52
2023/04/04 08:28:03;;;;;;;3.88;2.70;;;10.50;43.90;;;2.73;55.55;95853.19;4975205;28;20034;-53
2023/04/04 08:30:29;;;;;;;6.43;2.50;;;10.50;43.40;;;2.49;55.86;95862.59;4977775;28;20018;-53
2023/04/04 08:32:55;;;;;;;5.85;3.00;;;10.50;43.20;;;2.27;56.68;95872.53;4967047;28;20681;-52
2023/04/04 08:35:21;;;;;;;5.82;2.88;;;10.40;42.80;;;1.90;57.67;95866.13;4975407;28;20054;-50
2023/04/04 08:37:47;;;;;;;4.80;2.42;;;10.30;42.60;;;2.43;58.02;95872.09;4968774;28;20057;-53
2023/04/04 08:40:14;;;;;;;3.40;2.65;;;10.20;42.60;;;2.19;57.54;95862.22;4971763;28;20025;-50
2023/04/04 08:42:45;;;;;;;5.22;2.95;;;10.30;42.50;;;2.74;57.04;95873.22;4976235;28;20033;-53
2023/04/04 08:45:15;;;;;;;5.28;2.70;;;10.60;42.50;;;3.22;53.97;95870.16;4973736;28;20030;-52
2023/04/04 08:47:45;;;;;;;4.47;2.58;;;10.80;42.40;;;3.35;54.25;95877.97;4968508;28;20038;-50
2023/04/04 08:50:11;;;;;;;4.05;2.65;;;11.10;42.20;;;3.90;52.63;95874.78;4974078;28;20018;-49
2023/04/04 08:52:40;;;;;;;4.07;2.97;;;11.40;42.10;;;4.43;52.70;95876.94;4975643;28;20034;-55
2023/04/04 08:55:09;;;;;;;4.85;2.72;;;11.70;42.00;;;4.15;51.65;95874.78;4970366;28;20018;-52
2023/04/04 08:57:35;;;;;;;4.63;3.00;;;12.00;41.70;;;4.33;51.62;95879.28;4976372;28;20038;-56
2023/04/04 09:00:04;;;;;;;4.97;2.80;;;12.20;41.00;;;4.13;52.79;95882.88;4967142;28;20018;-52
2023/04/04 09:03:16;;;;;;;4.03;3.08;;;12.30;41.00;;;4.19;51.09;95881.22;4954136;28;20034;-56
2023/04/04 09:05:43;;;;;;;4.75;2.63;;;12.40;40.30;;;4.18;51.99;95880.41;4968484;28;20018;-55
2023/04/04 09:08:11;;;;;;;4.75;2.72;;;12.50;40.10;;;4.45;53.14;95871.44;4974613;28;20061;-50
2023/04/04 09:10:42;;;;;;;4.15;2.60;;;12.60;40.20;;;3.51;51.56;95875.88;4978042;28;20032;-50
2023/04/04 09:13:10;;;;;;;3.13;2.67;;;12.40;40.00;;;3.64;52.51;95873.97;4975437;28;20037;-49
2023/04/04 09:15:42;;;;;;;2.78;2.47;;;12.30;39.70;;;3.92;52.46;95867.47;4969393;28;20033;-50
2023/04/04 09:18:08;;;;;;;3.10;2.40;;;12.40;39.40;;;4.26;51.26;95871.44;4966979;28;20022;-51
2023/04/04 09:20:44;;;;;;;3.88;2.45;;;12.60;39.20;;;4.68;51.13;95874.25;4969231;28;20057;-51
2023/04/04 09:23:19;;;;;;;4.43;2.60;;;12.80;39.10;;;4.81;49.54;95870.66;4970311;28;20132;-50
2023/04/04 09:25:47;;;;;;;4.18;2.47;;;13.00;38.80;;;4.77;51.46;95865.00;4970414;28;20022;-51
2023/04/04 09:28:15;;;;;;;3.85;2.42;;;13.20;38.80;;;4.95;47.57;95866.00;4973628;28;20030;-51
2023/04/04 09:30:43;;;;;;;3.45;2.58;;;13.40;38.60;;;4.98;47.90;95862.91;4973311;28;20037;-51
2023/04/04 09:33:14;;;;;;;5.47;2.92;;;13.60;38.30;;;5.01;49.88;95863.28;4970173;28;20109;-51
2023/04/04 09:35:53;;;;;;;4.47;2.90;;;13.70;37.80;;;5.02;48.77;95864.91;4961861;28;20029;-51
2023/04/04 09:38:24;;;;;;;3.50;2.67;;;13.90;37.50;;;5.05;48.34;95871.59;4971475;28;20057;-51
2023/04/04 09:40:51;;;;;;;5.05;2.50;;;14.00;37.00;;;4.93;48.48;95862.81;4969364;28;20355;-51
2023/04/04 09:43:18;;;;;;;3.97;2.90;;;14.00;36.80;;;4.95;48.33;95872.13;4970862;28;20065;-52
2023/04/04 09:45:46;;;;;;;5.90;2.60;;;14.10;36.50;;;5.42;51.12;95874.13;4966573;28;20499;-51
2023/04/04 09:48:12;;;;;;;3.60;2.53;;;14.20;36.70;;;4.53;48.32;95868.53;4969167;28;20049;-51
2023/04/04 09:50:46;;;;;;;4.45;2.40;;;14.30;36.60;;;5.28;48.96;95860.31;4969752;28;20026;-51
2023/04/04 09:53:18;;;;;;;3.22;2.28;;;14.40;36.20;;;5.75;49.00;95868.38;4971187;28;20022;-50
2023/04/04 09:55:55;;;;;;;5.38;2.80;;;14.60;36.30;;;6.09;47.21;95858.91;4969354;28;20138;-53
2023/04/04 09:58:28;;;;;;;3.47;2.25;;;14.80;36.40;;;5.97;47.02;95863.38;4970452;28;20444;-50
2023/04/04 10:01:00;;;;;;;3.20;2.38;;;14.80;36.00;;;6.34;46.14;95861.31;4976309;28;20021;-50
2023/04/04 10:03:29;;;;;;;5.00;2.58;;;14.90;35.80;;;6.16;45.22;95866.72;4973658;28;20183;-51
2023/04/04 10:05:58;;;;;;;3.20;2.35;;;15.10;35.70;;;6.23;44.41;95865.56;4971528;28;20035;-50
2023/04/04 10:08:28;;;;;;;5.15;2.70;;;15.30;35.30;;;6.60;48.06;95865.31;4971299;28;20025;-51
2023/04/04 10:10:59;;;;;;;3.63;2.60;;;15.40;35.10;;;5.91;45.71;95874.84;4967938;28;20026;-53
2023/04/04 10:13:29;;;;;;;4.60;2.45;;;15.50;34.80;;;6.19;47.54;95858.34;4974021;28;20026;-51
2023/04/04 10:15:59;;;;;;;2.42;2.20;;;15.60;34.60;;;6.15;46.15;95862.47;4970569;28;20408;-52
2023/04/04 10:18:32;;;;;;;4.90;2.40;;;15.70;34.60;;;6.45;44.36;95865.78;4966316;28;20038;-53
2023/04/04 10:21:05;;;;;;;3.03;2.38;;;15.70;33.90;;;6.37;44.89;95868.00;4968868;28;20018;-54
2023/04/04 10:23:33;;;;;;;3.08;2.35;;;15.80;33.60;;;6.84;43.34;95860.00;4968450;28;20022;-50
2023/04/04 10:26:00;;;;;;;4.82;3.80;;;15.90;33.60;;;7.02;43.03;95869.63;4968242;28;20030;-50
2023/04/04 10:28:27;;;;;;;3.85;2.90;;;16.00;33.30;;;7.00;42.27;95872.50;4967164;28;20515;-51